Time;durP1;ratioP1;P1;durP2;ratioP2;P2;SDS_P1;SDS_P2;PMS_P1;PMS_P2;Temp;Humidity;BMP_temperature;BMP_pressure;BME280_temperature;BME280_humidity;BME280_pressure;Samples;Min_cycle;Max_cycle;Signal;HPM_P1;HPM_P2
2022/01/21 00:00:46;;;;;;;10.80;5.50;;;;;;;-2.24;98.89;98885.55;105242;1271;70680;-74
2022/01/21 00:03:19;;;;;;;14.40;8.20;;;;;;;-2.25;98.96;98889.39;105014;1271;73502;-74
2022/01/21 00:05:45;;;;;;;13.00;6.30;;;;;;;-2.27;99.09;98887.52;105207;1271;62062;-72
2022/01/21 00:08:12;;;;;;;11.90;5.50;;;;;;;-2.28;99.19;98888.40;105260;1271;62156;-73
2022/01/21 00:10:39;;;;;;;12.40;5.30;;;;;;;-2.27;99.16;98894.83;102273;1271;1003866;-73
2022/01/21 00:13:15;;;;;;;13.70;6.50;;;;;;;-2.27;99.31;98892.20;105204;1271;68718;-73
2022/01/21 00:15:42;;;;;;;13.30;6.40;;;;;;;-2.27;99.38;98894.81;105280;1271;73420;-73
2022/01/21 00:18:10;;;;;;;15.80;8.50;;;;;;;-2.27;99.55;98891.86;105345;1271;62225;-73
2022/01/21 00:31:39;;;;;;;14.40;9.70;;;;;;;-2.29;99.97;98890.51;105853;1271;62205;-72
2022/01/21 00:34:05;;;;;;;18.80;11.00;;;;;;;-2.28;99.92;98891.21;105763;1271;62122;-73
2022/01/21 00:36:33;;;;;;;23.50;14.00;;;;;;;-2.28;99.92;98892.06;107082;1270;76120;-72
2022/01/21 00:38:59;;;;;;;30.60;15.50;;;;;;;-2.27;99.98;98894.81;107799;1271;69441;-72
2022/01/21 00:41:30;;;;;;;21.80;12.80;;;;;;;-2.25;100.00;98896.71;107632;1270;73511;-73
2022/01/21 00:43:57;;;;;;;22.50;12.60;;;;;;;-2.24;100.00;98903.13;107977;1271;61952;-75
2022/01/21 00:46:24;;;;;;;21.20;11.90;;;;;;;-2.22;100.00;98905.01;108011;1271;61848;-74
2022/01/21 00:48:50;;;;;;;16.20;10.70;;;;;;;-2.20;100.00;98906.55;105378;1271;76116;-71
2022/01/21 00:51:17;;;;;;;15.40;10.50;;;;;;;-2.18;100.00;98910.35;105256;1271;69448;-72
2022/01/21 00:53:43;;;;;;;17.10;8.80;;;;;;;-2.18;100.00;98914.35;105225;1271;73428;-73
2022/01/21 00:56:10;;;;;;;17.90;11.60;;;;;;;-2.17;100.00;98918.16;105262;1271;62157;-74
2022/01/21 00:58:36;;;;;;;17.00;11.40;;;;;;;-2.17;100.00;98916.08;105258;1271;62634;-72
2022/01/21 01:01:04;;;;;;;34.50;14.70;;;;;;;-2.17;100.00;98917.98;105232;1270;76904;-73
2022/01/21 01:03:30;;;;;;;30.30;12.20;;;;;;;-2.17;100.00;98918.52;105044;1271;68869;-73
2022/01/21 01:05:57;;;;;;;30.70;12.00;;;;;;;-2.18;100.00;98914.53;105192;1271;73187;-73
2022/01/21 01:08:24;;;;;;;23.80;12.30;;;;;;;-2.21;100.00;98919.95;105246;1271;62087;-71
2022/01/21 01:21:36;;;;;;;36.30;16.40;;;;;;;-2.33;100.00;98948.52;105213;1271;62299;-72
2022/01/21 01:29:19;;;;;;;18.60;12.70;;;;;;;-2.30;100.00;98954.73;105255;1270;69174;-73
2022/01/21 01:31:46;;;;;;;20.40;13.20;;;;;;;-2.29;100.00;98952.63;105004;1271;70661;-73
2022/01/21 01:34:13;;;;;;;19.20;13.30;;;;;;;-2.27;100.00;98947.03;105280;1271;62613;-74
2022/01/21 01:36:43;;;;;;;18.60;11.60;;;;;;;-2.26;100.00;98945.83;105246;1270;62264;-74
2022/01/21 01:39:15;;;;;;;16.40;10.60;;;;;;;-2.24;100.00;98946.98;104977;1271;74532;-73
2022/01/21 01:41:57;;;;;;;16.50;10.10;;;;;;;-2.23;100.00;98948.72;105234;1271;70376;-72
2022/01/21 01:49:54;;;;;;;10.50;6.20;;;;;;;-2.31;98.55;98951.27;105228;1271;62056;-71
2022/01/21 01:52:21;;;;;;;9.80;5.50;;;;;;;-2.38;98.30;98956.25;103789;1271;1003377;-73
2022/01/21 01:54:53;;;;;;;7.30;4.70;;;;;;;-2.43;97.08;98961.38;105220;1270;62076;-72
2022/01/21 01:57:19;;;;;;;10.20;4.40;;;;;;;-2.45;96.49;98965.77;105216;1271;74739;-72
2022/01/21 01:59:47;;;;;;;9.20;4.40;;;;;;;-2.48;96.67;98966.48;105225;1271;62183;-73
2022/01/21 02:02:16;;;;;;;5.10;3.80;;;;;;;-2.49;96.02;98968.60;105199;1270;62058;-73
2022/01/21 02:04:46;;;;;;;5.20;3.00;;;;;;;-2.51;95.43;98971.40;104993;1271;75979;-71
2022/01/21 02:07:13;;;;;;;10.40;4.20;;;;;;;-2.50;95.17;98970.86;105276;1271;69464;-72
2022/01/21 02:09:40;;;;;;;11.40;5.30;;;;;;;-2.49;95.67;98975.73;105227;1271;73347;-74
2022/01/21 02:12:07;;;;;;;9.30;5.50;;;;;;;-2.49;95.76;98980.79;105168;1271;62123;-74
2022/01/21 02:14:37;;;;;;;8.60;5.10;;;;;;;-2.49;96.01;98982.33;105217;1271;62069;-74
2022/01/21 02:22:26;;;;;;;8.90;3.60;;;;;;;-2.49;95.50;98992.09;104927;1271;72881;-72
2022/01/21 02:24:57;;;;;;;6.00;3.10;;;;;;;-2.54;94.71;98995.45;105212;1270;62101;-74
2022/01/21 02:27:25;;;;;;;6.00;3.20;;;;;;;-2.62;94.11;99005.30;105230;1270;62157;-73
2022/01/21 02:30:01;;;;;;;6.10;3.00;;;;;;;-2.68;93.19;99006.42;105264;1271;77006;-71
2022/01/21 02:32:28;;;;;;;4.60;2.90;;;;;;;-2.74;93.50;99010.16;104875;1271;69807;-72
2022/01/21 02:34:54;;;;;;;10.00;4.10;;;;;;;-2.82;93.17;99013.22;105200;1271;74228;-74
2022/01/21 02:37:22;;;;;;;7.30;3.10;;;;;;;-2.90;93.75;99016.10;105221;1271;62097;-74
2022/01/21 02:39:50;;;;;;;7.90;3.40;;;;;;;-2.95;93.85;99015.64;105228;1271;62417;-74
2022/01/21 02:42:17;;;;;;;11.70;5.00;;;;;;;-2.99;94.15;99023.52;105283;1271;77122;-72
2022/01/21 02:44:44;;;;;;;8.50;4.40;;;;;;;-3.03;94.07;99026.52;104960;1271;70164;-72
2022/01/21 02:47:10;;;;;;;9.90;3.80;;;;;;;-3.07;94.29;99030.21;105263;1271;74441;-73
2022/01/21 02:49:37;;;;;;;7.60;3.30;;;;;;;-3.12;94.30;99033.91;104915;1271;62194;-71
2022/01/21 02:52:06;;;;;;;7.30;3.00;;;;;;;-3.16;94.62;99045.42;104460;1271;1002947;-72
2022/01/21 02:54:36;;;;;;;7.40;3.60;;;;;;;-3.18;94.81;99048.23;105224;1271;76090;-73
2022/01/21 02:57:05;;;;;;;7.40;3.60;;;;;;;-3.21;94.84;99048.44;105199;1271;70317;-72
2022/01/21 02:59:33;;;;;;;8.00;4.10;;;;;;;-3.28;94.97;99050.25;105206;1271;73241;-72
2022/01/21 03:02:00;;;;;;;11.90;3.10;;;;;;;-3.34;94.98;99052.38;105284;1270;62161;-74
2022/01/21 03:04:39;;;;;;;9.00;3.50;;;;;;;-3.37;95.05;99053.11;105332;1271;62438;-71
2022/01/21 03:07:06;;;;;;;7.90;3.80;;;;;;;-3.40;95.11;99051.41;105417;1271;74873;-73
2022/01/21 03:09:32;;;;;;;3.80;3.20;;;;;;;-3.44;94.99;99048.67;105097;1272;70222;-72
2022/01/21 03:11:59;;;;;;;6.00;3.10;;;;;;;-3.49;94.97;99050.11;105304;1271;62279;-73
2022/01/21 03:14:25;;;;;;;6.00;3.00;;;;;;;-3.54;94.69;99049.30;104922;1271;62092;-71
2022/01/21 03:16:53;;;;;;;7.40;3.10;;;;;;;-3.58;94.80;99056.63;105244;1271;62088;-73
2022/01/21 03:19:19;;;;;;;7.90;3.90;;;;;;;-3.62;94.82;99052.83;105239;1271;75930;-71
2022/01/21 03:21:46;;;;;;;7.60;4.40;;;;;;;-3.65;94.81;99060.33;105232;1270;62146;-73
2022/01/21 03:24:13;;;;;;;5.40;2.60;;;;;;;-3.68;94.79;99062.79;105196;1271;62075;-71
2022/01/21 03:26:39;;;;;;;5.20;2.80;;;;;;;-3.68;94.80;99065.56;105113;1271;62061;-73
2022/01/21 03:29:06;;;;;;;5.10;3.50;;;;;;;-3.69;94.66;99072.16;105024;1271;62372;-71
2022/01/21 03:31:34;;;;;;;9.80;3.40;;;;;;;-3.68;94.67;99080.67;104886;1271;77158;-72
2022/01/21 03:34:02;;;;;;;7.20;3.50;;;;;;;-3.67;94.81;99082.05;104948;1272;68547;-74
2022/01/21 03:36:29;;;;;;;7.10;2.60;;;;;;;-3.66;95.11;99090.38;105308;1271;73656;-72
2022/01/21 03:38:57;;;;;;;7.50;2.90;;;;;;;-3.62;95.60;99092.08;104934;1271;62173;-72
2022/01/21 03:41:24;;;;;;;5.00;3.20;;;;;;;-3.60;96.04;99095.18;105207;1271;62231;-70
2022/01/21 03:43:50;;;;;;;7.40;3.20;;;;;;;-3.61;96.46;99095.88;105217;1271;76963;-75
2022/01/21 03:46:17;;;;;;;7.40;2.30;;;;;;;-3.64;96.74;99103.90;105263;1271;69075;-72
2022/01/21 03:48:47;;;;;;;4.50;2.40;;;;;;;-3.70;96.57;99106.55;105207;1271;73176;-72
2022/01/21 03:51:16;;;;;;;3.70;2.10;;;;;;;-3.77;96.91;99108.16;105211;1270;62203;-72
2022/01/21 03:53:44;;;;;;;8.90;3.50;;;;;;;-3.82;97.37;99109.59;105196;1271;61938;-73
2022/01/21 03:59:51;;;;;;;5.80;2.80;;;;;;;-3.95;97.77;99114.71;105188;1271;69986;-72
2022/01/21 04:02:18;;;;;;;7.10;3.10;;;;;;;-4.00;97.62;99115.26;105253;1271;73248;-73
2022/01/21 04:04:45;;;;;;;3.90;2.60;;;;;;;-4.03;97.85;99112.85;105310;1271;62063;-73
2022/01/21 04:07:11;;;;;;;9.70;4.00;;;;;;;-4.06;97.79;99116.52;104897;1271;62142;-74
2022/01/21 04:09:38;;;;;;;5.00;2.60;;;;;;;-4.11;97.73;99113.25;105236;1271;76086;-70
2022/01/21 04:12:05;;;;;;;4.20;2.30;;;;;;;-4.14;97.69;99114.30;105204;1271;62063;-72
2022/01/21 04:14:34;;;;;;;4.90;2.40;;;;;;;-4.16;97.66;99111.39;105035;1271;74145;-72
2022/01/21 04:17:00;;;;;;;9.00;2.90;;;;;;;-4.19;97.51;99111.23;103744;1271;1003816;-73
2022/01/21 04:19:27;;;;;;;7.00;3.70;;;;;;;-4.23;97.43;99115.92;105215;1271;62191;-72
2022/01/21 04:21:54;;;;;;;5.40;4.00;;;;;;;-4.26;97.37;99120.97;105223;1271;62092;-71
2022/01/21 04:24:20;;;;;;;4.70;2.80;;;;;;;-4.28;97.12;99132.27;105238;1271;62282;-72
2022/01/21 04:26:47;;;;;;;5.20;2.30;;;;;;;-4.28;96.75;99134.34;105247;1269;62103;-70
2022/01/21 04:29:14;;;;;;;5.80;2.00;;;;;;;-4.24;96.09;99134.66;105200;1271;62105;-71
2022/01/21 04:31:41;;;;;;;4.10;2.40;;;;;;;-4.22;95.87;99139.85;105225;1271;61938;-71
2022/01/21 04:34:07;;;;;;;7.00;2.50;;;;;;;-4.18;95.43;99146.61;105217;1271;77238;-72
2022/01/21 04:36:35;;;;;;;4.70;2.10;;;;;;;-4.18;95.10;99148.34;105062;1271;69451;-71
2022/01/21 04:39:04;;;;;;;6.50;2.50;;;;;;;-4.16;95.11;99153.19;104924;1274;73850;-71
2022/01/21 04:47:20;;;;;;;4.80;1.80;;;;;;;-4.13;94.10;99158.20;104298;1271;1003604;-73
2022/01/21 04:49:39;;;;;;;6.20;2.20;;;;;;;-4.11;94.27;99152.98;105219;1271;70158;-74
2022/01/21 04:52:06;;;;;;;4.50;2.20;;;;;;;-4.08;94.03;99152.96;105242;1268;73336;-73
2022/01/21 04:54:35;;;;;;;6.50;2.10;;;;;;;-4.04;94.08;99154.15;105210;1271;62207;-74
2022/01/21 04:57:04;;;;;;;8.70;2.60;;;;;;;-4.02;93.92;99155.02;105033;1271;62072;-74
2022/01/21 04:59:32;;;;;;;4.80;1.90;;;;;;;-4.00;93.90;99158.48;105217;1271;77267;-73
2022/01/21 05:01:58;;;;;;;4.30;2.20;;;;;;;-3.98;93.86;99155.86;105232;1270;69709;-76
2022/01/21 05:04:25;;;;;;;6.50;2.90;;;;;;;-3.93;93.85;99153.92;105232;1271;74180;-73
2022/01/21 05:06:54;;;;;;;8.00;2.70;;;;;;;-3.90;93.77;99158.42;105049;1271;62084;-70
2022/01/21 05:09:30;;;;;;;9.50;3.40;;;;;;;-3.87;93.92;99160.48;104962;1271;62109;-73
2022/01/21 05:11:58;;;;;;;8.00;4.10;;;;;;;-3.82;93.78;99162.36;105258;1271;76076;-74
2022/01/21 05:14:46;;;;;;;9.00;3.50;;;;;;;-3.79;93.88;99156.60;105224;1271;69501;-73
2022/01/21 05:17:14;;;;;;;5.90;3.40;;;;;;;-3.72;93.34;99154.99;105205;1271;73503;-72
2022/01/21 05:19:42;;;;;;;10.30;4.40;;;;;;;-3.66;93.40;99149.74;105213;1271;62158;-73
2022/01/21 05:22:09;;;;;;;6.00;3.00;;;;;;;-3.61;93.37;99147.45;105242;1271;62133;-75
2022/01/21 05:24:35;;;;;;;5.80;2.70;;;;;;;-3.56;93.14;99147.95;105245;1271;77346;-73
2022/01/21 05:27:02;;;;;;;9.40;3.80;;;;;;;-3.52;93.24;99146.70;105214;1271;70421;-72
2022/01/21 05:29:32;;;;;;;6.90;3.40;;;;;;;-3.49;93.29;99147.20;105202;1271;74456;-70
2022/01/21 05:32:00;;;;;;;7.30;3.30;;;;;;;-3.46;93.25;99149.95;105057;1271;62133;-72
2022/01/21 05:34:27;;;;;;;5.20;3.00;;;;;;;-3.43;93.22;99152.35;105109;1271;62104;-71
2022/01/21 05:36:54;;;;;;;7.00;3.30;;;;;;;-3.41;93.08;99151.98;105212;1271;77580;-74
2022/01/21 05:39:22;;;;;;;12.00;3.40;;;;;;;-3.38;92.92;99153.35;105302;1271;70378;-73
2022/01/21 05:41:51;;;;;;;7.60;3.60;;;;;;;-3.35;92.97;99159.06;105192;1272;73215;-72
2022/01/21 05:47:00;;;;;;;7.00;3.50;;;;;;;-3.32;93.68;99151.91;105238;1270;62053;-73
2022/01/21 05:49:30;;;;;;;8.80;3.00;;;;;;;-3.33;93.78;99150.18;105377;1270;76904;-73
2022/01/21 05:52:07;;;;;;;8.50;3.00;;;;;;;-3.33;94.09;99152.95;105309;1271;69312;-73
2022/01/21 05:54:35;;;;;;;6.00;3.20;;;;;;;-3.34;94.22;99155.57;104944;1271;74093;-71
2022/01/21 05:57:05;;;;;;;8.90;3.50;;;;;;;-3.33;94.40;99151.75;105274;1271;62023;-72
2022/01/21 05:59:33;;;;;;;7.10;3.90;;;;;;;-3.32;94.55;99155.73;105224;1270;61990;-73
2022/01/21 06:02:00;;;;;;;8.10;3.60;;;;;;;-3.31;94.59;99156.26;105231;1271;75873;-73
2022/01/21 06:04:27;;;;;;;5.70;3.80;;;;;;;-3.31;94.68;99157.30;105080;1271;69544;-72
2022/01/21 06:06:53;;;;;;;4.00;2.70;;;;;;;-3.31;94.79;99158.33;105172;1271;73232;-72
2022/01/21 06:09:20;;;;;;;6.50;2.10;;;;;;;-3.32;95.13;99159.56;105236;1270;62078;-73
2022/01/21 06:11:47;;;;;;;7.90;3.20;;;;;;;-3.33;95.09;99169.48;105200;1271;62134;-71
2022/01/21 06:14:13;;;;;;;5.00;4.00;;;;;;;-3.34;95.25;99167.75;105231;1271;76201;-72
2022/01/21 06:16:40;;;;;;;5.80;2.20;;;;;;;-3.35;95.46;99173.48;104891;1273;70220;-73
2022/01/21 06:19:07;;;;;;;6.70;2.50;;;;;;;-3.36;95.26;99172.27;105219;1270;74430;-72
2022/01/21 06:21:34;;;;;;;6.20;2.70;;;;;;;-3.37;95.58;99178.18;105261;1271;62178;-72
2022/01/21 06:24:01;;;;;;;6.10;3.20;;;;;;;-3.38;95.55;99173.85;105212;1271;62541;-72
2022/01/21 06:26:27;;;;;;;6.50;3.20;;;;;;;-3.39;95.80;99174.20;104937;1271;76152;-72
2022/01/21 06:28:54;;;;;;;5.60;2.60;;;;;;;-3.39;96.01;99172.81;104920;1271;70417;-72
2022/01/21 06:31:21;;;;;;;5.30;2.60;;;;;;;-3.40;96.20;99173.16;105010;1271;73635;-73
2022/01/21 06:33:47;;;;;;;3.80;2.20;;;;;;;-3.40;96.36;99176.98;105207;1271;62110;-71
2022/01/21 06:36:14;;;;;;;6.30;2.70;;;;;;;-3.41;96.22;99178.91;105253;1271;62085;-72
2022/01/21 06:38:41;;;;;;;6.40;3.60;;;;;;;-3.40;96.39;99175.42;105264;1271;77279;-73
2022/01/21 06:41:07;;;;;;;6.50;2.50;;;;;;;-3.39;96.51;99177.33;105257;1271;70212;-74
2022/01/21 06:43:34;;;;;;;7.40;2.90;;;;;;;-3.39;96.73;99176.11;105261;1271;73113;-74
2022/01/21 06:46:01;;;;;;;8.40;2.90;;;;;;;-3.38;96.82;99179.94;105280;1271;62088;-72
2022/01/21 06:48:28;;;;;;;5.70;2.90;;;;;;;-3.39;96.89;99180.98;104839;1271;62037;-72
2022/01/21 06:50:54;;;;;;;9.20;3.60;;;;;;;-3.39;97.19;99186.71;105280;1271;77191;-72
2022/01/21 06:53:21;;;;;;;7.00;3.30;;;;;;;-3.39;97.52;99184.10;105278;1271;68224;-72
2022/01/21 06:55:48;;;;;;;8.00;2.60;;;;;;;-3.39;97.53;99185.84;105225;1271;73243;-72
2022/01/21 06:58:14;;;;;;;8.00;2.90;;;;;;;-3.38;97.93;99191.55;105240;1271;62302;-71
2022/01/21 07:00:41;;;;;;;10.60;3.00;;;;;;;-3.38;97.90;99191.05;105258;1271;62175;-73
2022/01/21 07:03:08;;;;;;;8.90;3.30;;;;;;;-3.37;97.85;99189.81;104950;1274;75983;-73
2022/01/21 07:05:35;;;;;;;8.70;3.10;;;;;;;-3.37;98.10;99195.55;105240;1271;70252;-74
2022/01/21 07:08:02;;;;;;;11.20;3.90;;;;;;;-3.37;98.45;99200.08;105261;1270;72903;-74
2022/01/21 07:10:29;;;;;;;12.00;4.30;;;;;;;-3.36;98.51;99199.20;105274;1271;62295;-74
2022/01/21 07:12:57;;;;;;;15.10;5.30;;;;;;;-3.34;98.52;99200.74;105449;1271;62199;-73
2022/01/21 07:15:24;;;;;;;15.50;6.30;;;;;;;-3.30;98.62;99198.11;104914;1271;77003;-71
2022/01/21 07:17:53;;;;;;;12.20;5.80;;;;;;;-3.27;98.89;99199.65;105190;1271;70541;-72
2022/01/21 07:20:20;;;;;;;10.00;5.00;;;;;;;-3.25;98.94;99203.98;105270;1271;74491;-73
2022/01/21 07:22:47;;;;;;;15.00;6.70;;;;;;;-3.20;98.90;99205.33;105298;1271;62110;-73
2022/01/21 07:25:14;;;;;;;10.80;4.20;;;;;;;-3.16;99.03;99206.68;105233;1271;61978;-74
2022/01/21 07:27:44;;;;;;;14.20;5.80;;;;;;;-3.15;99.19;99201.64;105526;1271;76130;-74
2022/01/21 07:30:12;;;;;;;8.20;4.10;;;;;;;-3.14;99.26;99203.71;105664;1271;70244;-72
2022/01/21 07:32:40;;;;;;;8.00;3.90;;;;;;;-3.09;99.42;99209.58;105237;1271;71314;-73
2022/01/21 07:35:09;;;;;;;12.10;5.60;;;;;;;-3.05;99.94;99209.72;105553;1271;62075;-72
2022/01/21 07:37:37;;;;;;;16.70;8.10;;;;;;;-3.00;99.75;99210.02;105880;1271;62112;-73
2022/01/21 07:40:05;;;;;;;10.60;6.50;;;;;;;-2.94;99.73;99207.70;107352;1270;75082;-70
2022/01/21 07:42:33;;;;;;;11.30;5.80;;;;;;;-2.88;99.62;99212.35;106604;1271;70590;-73
2022/01/21 07:45:02;;;;;;;15.80;7.80;;;;;;;-2.83;99.62;99211.95;106017;1271;73177;-73
2022/01/21 07:47:29;;;;;;;13.70;6.10;;;;;;;-2.78;99.53;99206.69;107568;1270;60595;-72
2022/01/21 07:49:55;;;;;;;11.70;5.50;;;;;;;-2.72;99.42;99211.16;107753;1271;61872;-73
2022/01/21 07:52:22;;;;;;;10.60;5.60;;;;;;;-2.67;99.48;99216.30;107404;1271;75875;-75
2022/01/21 07:54:49;;;;;;;8.90;5.50;;;;;;;-2.63;99.40;99210.71;107538;1270;70421;-73
2022/01/21 07:57:16;;;;;;;10.30;5.90;;;;;;;-2.58;99.30;99213.45;107618;1271;73310;-73
2022/01/21 07:59:42;;;;;;;12.80;5.70;;;;;;;-2.53;99.21;99212.35;105238;1271;62082;-74
2022/01/21 08:02:09;;;;;;;17.50;8.30;;;;;;;-2.50;99.05;99211.97;105680;1271;62155;-72
2022/01/21 08:04:36;;;;;;;27.40;12.70;;;;;;;-2.47;99.20;99209.33;105112;1274;76566;-74
2022/01/21 08:07:03;;;;;;;16.50;7.90;;;;;;;-2.42;99.13;99211.54;105267;1271;67454;-73
2022/01/21 08:09:31;;;;;;;20.90;11.40;;;;;;;-2.38;99.23;99212.02;105285;1271;73623;-71
2022/01/21 08:11:57;;;;;;;15.30;7.20;;;;;;;-2.35;99.32;99214.24;105199;1271;62149;-72
2022/01/21 08:14:24;;;;;;;21.90;10.50;;;;;;;-2.34;99.28;99213.01;105234;1271;62119;-73
2022/01/21 08:16:53;;;;;;;17.20;8.70;;;;;;;-2.33;99.36;99215.95;105248;1271;75926;-72
2022/01/21 08:19:20;;;;;;;19.80;9.80;;;;;;;-2.28;99.34;99218.16;105267;1271;68124;-74
2022/01/21 08:21:46;;;;;;;20.10;9.40;;;;;;;-2.25;99.40;99217.77;105218;1271;74292;-72
2022/01/21 08:24:13;;;;;;;15.00;7.50;;;;;;;-2.23;99.58;99221.41;105209;1271;62071;-72
2022/01/21 08:26:40;;;;;;;26.70;12.40;;;;;;;-2.20;99.47;99223.29;105236;1271;62071;-74
2022/01/21 08:29:07;;;;;;;16.50;7.10;;;;;;;-2.15;99.63;99223.93;105242;1271;76975;-74
2022/01/21 08:31:34;;;;;;;15.00;7.30;;;;;;;-2.09;99.53;99220.55;105232;1271;70432;-75
2022/01/21 08:34:01;;;;;;;14.30;7.60;;;;;;;-2.04;99.52;99224.31;105097;1271;71448;-75
2022/01/21 08:36:28;;;;;;;18.40;8.10;;;;;;;-2.01;99.53;99220.63;105339;1271;62062;-73
2022/01/21 08:38:55;;;;;;;14.70;8.60;;;;;;;-1.94;99.53;99224.71;103454;1271;1003766;-73
2022/01/21 08:41:21;;;;;;;11.60;6.90;;;;;;;-1.86;99.54;99224.96;105191;1271;61966;-72
2022/01/21 08:43:48;;;;;;;10.70;6.30;;;;;;;-1.79;99.42;99225.56;105161;1271;68937;-74
2022/01/21 08:46:15;;;;;;;15.40;7.80;;;;;;;-1.73;99.23;99227.05;105205;1271;73419;-71
2022/01/21 08:48:42;;;;;;;11.30;6.40;;;;;;;-1.73;99.14;99229.48;105208;1271;62078;-72
2022/01/21 08:51:10;;;;;;;18.40;9.30;;;;;;;-1.74;99.22;99233.84;105202;1271;62178;-76
2022/01/21 08:53:38;;;;;;;17.00;8.50;;;;;;;-1.71;99.32;99233.64;105027;1271;77030;-72
2022/01/21 08:56:09;;;;;;;13.70;7.50;;;;;;;-1.64;99.44;99232.67;105125;1271;69256;-73
2022/01/21 08:58:37;;;;;;;17.90;9.90;;;;;;;-1.59;99.35;99233.30;105140;1271;73412;-73
2022/01/21 09:01:05;;;;;;;21.70;10.10;;;;;;;-1.58;99.28;99237.98;105172;1271;62072;-73
2022/01/21 09:03:32;;;;;;;16.20;10.10;;;;;;;-1.60;99.22;99240.97;105202;1271;62015;-72
2022/01/21 09:05:59;;;;;;;18.70;11.70;;;;;;;-1.63;99.20;99238.23;105309;1271;76213;-74
2022/01/21 09:08:29;;;;;;;17.20;11.30;;;;;;;-1.63;99.35;99241.55;105173;1271;69512;-71
2022/01/21 09:11:00;;;;;;;19.70;11.80;;;;;;;-1.65;99.40;99248.53;105198;1271;72259;-74
2022/01/21 09:13:28;;;;;;;;;;;;;;;-1.60;99.28;99249.15;105194;1271;62142;-72
2022/01/21 09:15:59;;;;;;;21.50;13.20;;;;;;;-1.56;99.32;99249.80;105158;1271;62197;-72
2022/01/21 09:18:45;;;;;;;21.50;12.70;;;;;;;-1.48;99.27;99246.04;105217;1271;75585;-71
2022/01/21 09:21:24;;;;;;;12.70;8.00;;;;;;;-1.42;99.03;99243.16;105154;1271;69180;-73
2022/01/21 09:23:53;;;;;;;19.80;9.90;;;;;;;-1.43;98.77;99243.89;105282;1271;73628;-73
2022/01/21 09:26:22;;;;;;;16.50;9.00;;;;;;;-1.37;98.83;99249.52;105167;1271;62200;-72
2022/01/21 09:28:50;;;;;;;23.50;11.20;;;;;;;-1.32;98.80;99245.63;105272;1271;62204;-73
2022/01/21 09:31:17;;;;;;;22.00;12.10;;;;;;;-1.39;98.77;99239.45;105172;1271;77017;-74
2022/01/21 09:33:44;;;;;;;15.70;8.90;;;;;;;-1.35;98.91;99241.67;105154;1271;70065;-74
2022/01/21 09:36:12;;;;;;;18.60;9.80;;;;;;;-1.20;98.83;99246.85;105154;1271;73251;-72
2022/01/21 09:38:40;;;;;;;22.30;11.90;;;;;;;-1.07;98.55;99251.16;104914;1274;62365;-74
2022/01/21 09:41:09;;;;;;;16.00;9.70;;;;;;;-0.98;98.31;99250.68;105011;1271;62029;-72
2022/01/21 09:43:38;;;;;;;18.10;10.20;;;;;;;-0.95;98.10;99249.41;105123;1271;76202;-73
2022/01/21 09:46:07;;;;;;;18.00;8.70;;;;;;;-0.93;97.76;99246.59;105210;1271;69127;-72
2022/01/21 09:48:50;;;;;;;17.00;9.80;;;;;;;-0.91;97.75;99245.69;105344;1271;74371;-72
2022/01/21 09:51:18;;;;;;;18.20;10.20;;;;;;;-0.82;97.47;99249.73;105187;1271;62158;-73
2022/01/21 09:53:45;;;;;;;15.70;7.90;;;;;;;-0.67;97.54;99241.96;105133;1271;62586;-72
2022/01/21 09:56:14;;;;;;;20.20;9.10;;;;;;;-0.55;97.16;99240.88;104478;1271;1003162;-73
2022/01/21 09:58:45;;;;;;;13.60;8.20;;;;;;;-0.51;96.89;99231.55;105315;1271;69465;-73
2022/01/21 10:01:12;;;;;;;12.80;6.00;;;;;;;-0.51;96.79;99230.34;105279;1271;73134;-74
2022/01/21 10:03:43;;;;;;;16.80;7.60;;;;;;;-0.53;96.89;99231.23;105194;1271;62083;-73
2022/01/21 10:06:12;;;;;;;12.30;6.00;;;;;;;-0.52;96.95;99225.98;105180;1271;62135;-87
2022/01/21 10:08:41;;;;;;;13.40;6.90;;;;;;;-0.52;96.98;99224.60;105255;1271;76995;-75
2022/01/21 10:11:09;;;;;;;13.50;7.00;;;;;;;-0.59;97.06;99226.47;105172;1270;70283;-75
2022/01/21 10:13:37;;;;;;;17.60;7.80;;;;;;;-0.68;96.95;99226.29;105234;1271;74104;-75
2022/01/21 10:16:05;;;;;;;13.00;6.90;;;;;;;-0.76;96.98;99221.54;105194;1271;62122;-74
2022/01/21 10:18:32;;;;;;;14.40;8.00;;;;;;;-0.79;97.27;99219.16;105091;1271;62189;-75
2022/01/21 10:21:13;;;;;;;14.20;8.00;;;;;;;-0.80;97.43;99215.34;105010;1271;76987;-76
2022/01/21 10:23:42;;;;;;;14.40;7.20;;;;;;;-0.79;97.53;99207.98;105214;1271;70554;-72
2022/01/21 10:26:12;;;;;;;13.10;6.80;;;;;;;-0.82;97.25;99204.73;105188;1271;73507;-72
2022/01/21 10:28:42;;;;;;;16.20;7.50;;;;;;;-0.82;97.45;99206.81;104995;1272;63708;-74
2022/01/21 10:31:16;;;;;;;19.70;8.90;;;;;;;-0.74;97.50;99198.48;105236;1271;62131;-77
2022/01/21 10:33:51;;;;;;;16.20;8.80;;;;;;;-0.71;97.40;99203.47;105281;1272;77582;-78
2022/01/21 10:36:26;;;;;;;17.70;8.50;;;;;;;-0.76;97.37;99197.98;105282;1271;70489;-79
2022/01/21 10:38:59;;;;;;;17.10;8.70;;;;;;;-0.76;97.66;99198.52;103038;1271;1003036;-80
2022/01/21 10:41:32;;;;;;;16.80;8.80;;;;;;;-0.75;97.39;99196.92;105152;1271;62072;-77
2022/01/21 10:44:19;;;;;;;12.00;6.60;;;;;;;-0.75;96.86;99202.50;105273;1271;62049;-75
2022/01/21 10:47:10;;;;;;;16.20;6.40;;;;;;;-0.67;96.51;99198.70;105146;1271;77399;-77
2022/01/21 10:49:43;;;;;;;13.00;5.60;;;;;;;-0.63;95.87;99197.93;105119;1271;69148;-75
2022/01/21 10:52:13;;;;;;;9.80;5.00;;;;;;;-0.69;95.53;99191.22;105178;1271;73200;-75
2022/01/21 10:54:44;;;;;;;;;;;;;;;-0.69;95.34;99191.40;105149;1271;62123;-75
2022/01/21 10:57:14;;;;;;;10.00;4.40;;;;;;;-0.70;94.22;99189.51;105160;1271;62181;-75
2022/01/21 10:59:58;;;;;;;9.60;4.30;;;;;;;-0.73;94.00;99195.66;105171;1271;75804;-76
2022/01/21 11:02:30;;;;;;;12.20;4.60;;;;;;;-0.68;93.38;99194.52;104999;1271;67565;-75
2022/01/21 11:04:59;;;;;;;9.20;4.20;;;;;;;-0.62;92.80;99195.63;105160;1271;73134;-75
2022/01/21 11:07:48;;;;;;;8.10;3.30;;;;;;;-0.55;91.14;99193.59;105200;1271;62084;-74
2022/01/21 11:10:36;;;;;;;8.30;3.30;;;;;;;-0.43;89.98;99196.67;105161;1271;61945;-75
2022/01/21 11:13:23;;;;;;;8.00;3.30;;;;;;;-0.34;89.68;99187.60;105159;1271;76302;-75
2022/01/21 11:15:57;;;;;;;10.00;4.60;;;;;;;-0.30;88.38;99186.98;105188;1271;70078;-76
2022/01/21 11:18:26;;;;;;;11.00;4.40;;;;;;;-0.28;88.43;99183.45;104973;1271;74798;-76
2022/01/21 11:21:06;;;;;;;8.20;3.70;;;;;;;-0.22;89.41;99185.77;105007;1271;62151;-75
2022/01/21 11:23:33;;;;;;;;;;;;;;;-0.10;88.85;99185.04;105171;1271;62158;-75
2022/01/21 11:26:03;;;;;;;6.60;3.40;;;;;;;0.07;88.40;99182.75;105198;1271;77382;-76
2022/01/21 11:28:41;;;;;;;9.60;3.50;;;;;;;0.12;87.20;99188.40;105240;1271;69435;-76
2022/01/21 11:31:08;;;;;;;7.50;3.70;;;;;;;0.14;87.46;99188.17;105331;1271;73322;-77
2022/01/21 11:33:36;;;;;;;7.40;2.90;;;;;;;0.14;85.78;99186.45;104468;1271;1003885;-76
2022/01/21 11:36:04;;;;;;;10.70;3.70;;;;;;;0.10;85.92;99182.49;105200;1271;62059;-75
2022/01/21 11:38:37;;;;;;;7.00;3.90;;;;;;;0.06;85.17;99175.60;104991;1274;77055;-75
2022/01/21 11:41:07;;;;;;;8.10;3.80;;;;;;;0.09;86.42;99177.27;105159;1271;68404;-76
2022/01/21 11:43:35;;;;;;;7.60;3.30;;;;;;;0.22;85.82;99172.11;105254;1271;74150;-75
2022/01/21 11:46:20;;;;;;;7.90;3.20;;;;;;;0.31;85.35;99167.36;105096;1274;62185;-77
2022/01/21 11:48:55;;;;;;;9.30;3.30;;;;;;;0.33;84.97;99167.65;105207;1271;62133;-75
2022/01/21 11:51:32;;;;;;;11.00;3.90;;;;;;;0.35;84.58;99168.52;105221;1271;75985;-76
2022/01/21 11:54:01;;;;;;;7.70;3.60;;;;;;;0.29;83.14;99175.98;105208;1271;69200;-75
2022/01/21 11:56:53;;;;;;;7.70;3.30;;;;;;;0.23;83.06;99172.42;105173;1271;74863;-76
2022/01/21 11:59:41;;;;;;;7.00;3.00;;;;;;;0.19;83.32;99179.49;105244;1271;62059;-78
2022/01/21 12:02:18;;;;;;;9.40;3.30;;;;;;;0.06;83.03;99167.56;105235;1271;62037;-76
2022/01/21 12:04:56;;;;;;;5.00;2.70;;;;;;;-0.06;82.35;99170.45;105225;1271;76130;-77
2022/01/21 12:07:29;;;;;;;6.70;2.70;;;;;;;-0.15;82.57;99176.04;105195;1271;69347;-79
2022/01/21 12:09:58;;;;;;;11.40;3.50;;;;;;;-0.11;81.55;99171.27;105255;1271;74217;-80
2022/01/21 12:12:56;;;;;;;7.30;2.80;;;;;;;-0.01;82.90;99168.42;105113;1272;62331;-78
2022/01/21 12:15:40;;;;;;;8.70;3.20;;;;;;;0.14;81.56;99164.94;105226;1271;62065;-76
2022/01/21 12:21:01;;;;;;;5.90;2.30;;;;;;;0.05;79.14;99161.30;105175;1270;70120;-76